Time;durP1;ratioP1;P1;durP2;ratioP2;P2;SDS_P1;SDS_P2;PMS_P1;PMS_P2;Temp;Humidity;BMP_temperature;BMP_pressure;BME280_temperature;BME280_humidity;BME280_pressure;Samples;Min_cycle;Max_cycle;Signal;HPM_P1;HPM_P2
2022/09/12 00:00:30;;;;;;;;;8.50;8.50;;;;;;;;5081116;28;62066;-79
2022/09/12 00:02:56;;;;;;;;;6.00;6.00;;;;;;;;5080339;28;63953;-79
2022/09/12 00:05:21;;;;;;;;;10.00;8.00;;;;;;;;5080750;28;61958;-79
2022/09/12 00:07:46;;;;;;;;;6.50;6.50;;;;;;;;5089241;27;61860;-79
2022/09/12 00:10:12;;;;;;;;;14.00;7.25;;;;;;;;5101509;27;62013;-79
2022/09/12 00:12:37;;;;;;;;;9.25;7.00;;;;;;;;5100637;27;63514;-79
2022/09/12 00:15:03;;;;;;;;;8.25;4.75;;;;;;;;5102656;27;61978;-79
2022/09/12 00:17:28;;;;;;;;;8.75;7.75;;;;;;;;5102513;27;61977;-79
2022/09/12 00:19:54;;;;;;;;;12.75;6.50;;;;;;;;5101533;27;62118;-79
2022/09/12 00:22:20;;;;;;;;;10.25;8.00;;;;;;;;5099847;27;63663;-79
2022/09/12 00:24:45;;;;;;;;;8.00;8.00;;;;;;;;5100731;27;61938;-80
2022/09/12 00:27:10;;;;;;;;;11.25;9.50;;;;;;;;5102211;27;61953;-79
2022/09/12 00:29:35;;;;;;;;;12.00;7.50;;;;;;;;5101242;27;62070;-80
2022/09/12 00:32:01;;;;;;;;;13.50;8.75;;;;;;;;5101842;27;61776;-79
2022/09/12 00:34:26;;;;;;;;;10.50;9.00;;;;;;;;5102501;27;61802;-79
2022/09/12 00:36:51;;;;;;;;;9.75;9.75;;;;;;;;5100341;27;61991;-79
2022/09/12 00:39:17;;;;;;;;;9.00;9.00;;;;;;;;5101335;27;61961;-79
2022/09/12 00:41:42;;;;;;;;;7.50;6.50;;;;;;;;5100145;27;64010;-79
2022/09/12 00:44:10;;;;;;;;;12.50;8.50;;;;;;;;5102016;27;62042;-79
2022/09/12 00:46:36;;;;;;;;;10.50;10.25;;;;;;;;5100595;27;61799;-79
2022/09/12 00:49:04;;;;;;;;;7.25;7.00;;;;;;;;5102529;27;62090;-79
2022/09/12 00:51:31;;;;;;;;;11.00;11.00;;;;;;;;5103089;27;64934;-79
2022/09/12 00:53:58;;;;;;;;;12.25;9.50;;;;;;;;5103755;27;62029;-79
2022/09/12 00:56:23;;;;;;;;;10.75;9.25;;;;;;;;5104046;27;62213;-79
2022/09/12 00:59:01;;;;;;;;;8.50;7.50;;;;;;;;5104279;27;62343;-79
2022/09/12 01:01:27;;;;;;;;;12.25;8.75;;;;;;;;5103471;27;65472;-80
2022/09/12 01:03:52;;;;;;;;;10.25;7.50;;;;;;;;5104100;27;61876;-79
2022/09/12 01:06:20;;;;;;;;;5.50;5.50;;;;;;;;5103360;27;62035;-79
2022/09/12 01:08:46;;;;;;;;;13.75;8.75;;;;;;;;5103771;27;62132;-79
2022/09/12 01:11:12;;;;;;;;;8.50;8.50;;;;;;;;5103568;27;64807;-79
2022/09/12 01:13:38;;;;;;;;;7.00;7.00;;;;;;;;5103792;27;61871;-79
2022/09/12 01:16:04;;;;;;;;;9.25;7.50;;;;;;;;5103592;27;61675;-79
2022/09/12 01:18:30;;;;;;;;;8.75;8.50;;;;;;;;5105527;27;61749;-79
2022/09/12 01:20:56;;;;;;;;;11.50;9.50;;;;;;;;5102604;27;63723;-79
2022/09/12 01:23:48;;;;;;;;;7.75;7.00;;;;;;;;5103587;27;61733;-79
2022/09/12 01:26:19;;;;;;;;;8.25;8.25;;;;;;;;5064667;28;62136;-79
2022/09/12 01:29:03;;;;;;;;;10.00;10.00;;;;;;;;5065119;28;62613;-79
2022/09/12 01:31:47;;;;;;;;;12.25;8.50;;;;;;;;5064260;28;65102;-79
2022/09/12 01:34:12;;;;;;;;;11.00;9.00;;;;;;;;5081968;28;62272;-79
2022/09/12 01:36:51;;;;;;;;;8.00;8.00;;;;;;;;5064201;28;61969;-79
2022/09/12 01:39:22;;;;;;;;;9.00;8.00;;;;;;;;5065079;28;62207;-79
2022/09/12 01:41:49;;;;;;;;;12.00;10.00;;;;;;;;5064434;28;65176;-79
2022/09/12 01:44:26;;;;;;;;;9.50;9.50;;;;;;;;5064723;28;61923;-79
2022/09/12 01:47:10;;;;;;;;;13.50;10.00;;;;;;;;5081430;28;62309;-79
2022/09/12 01:49:47;;;;;;;;;11.25;8.00;;;;;;;;5081796;28;62278;-78
2022/09/12 01:52:17;;;;;;;;;9.50;8.50;;;;;;;;5080776;28;62940;-79
2022/09/12 01:55:02;;;;;;;;;9.25;7.75;;;;;;;;5064335;28;62166;-79
2022/09/12 01:57:35;;;;;;;;;8.75;8.00;;;;;;;;5063420;28;61929;-79
2022/09/12 02:00:03;;;;;;;;;11.00;9.50;;;;;;;;5064716;28;62110;-79
2022/09/12 02:02:32;;;;;;;;;14.75;9.00;;;;;;;;5070504;27;63853;-79
2022/09/12 02:05:01;;;;;;;;;12.25;9.75;;;;;;;;5102749;27;61866;-79
2022/09/12 02:07:30;;;;;;;;;11.00;10.00;;;;;;;;5103683;27;61846;-79
2022/09/12 02:10:03;;;;;;;;;13.50;12.00;;;;;;;;5104763;27;61969;-79
2022/09/12 02:12:32;;;;;;;;;13.50;12.50;;;;;;;;5103795;27;61956;-79
2022/09/12 02:15:01;;;;;;;;;18.75;12.00;;;;;;;;5104081;27;61743;-79
2022/09/12 02:17:27;;;;;;;;;15.50;13.25;;;;;;;;5104233;27;61694;-79
2022/09/12 02:20:01;;;;;;;;;19.00;12.50;;;;;;;;5104350;27;61679;-79
2022/09/12 02:22:28;;;;;;;;;12.00;10.25;;;;;;;;5101862;27;63696;-79
2022/09/12 02:24:57;;;;;;;;;10.25;9.50;;;;;;;;5102649;27;61968;-79
2022/09/12 02:27:25;;;;;;;;;14.50;12.00;;;;;;;;5103726;27;61714;-79
2022/09/12 02:29:50;;;;;;;;;14.00;11.75;;;;;;;;5103113;27;61703;-79
2022/09/12 02:32:25;;;;;;;;;22.50;13.75;;;;;;;;5101740;27;63510;-79
2022/09/12 02:35:05;;;;;;;;;14.50;12.50;;;;;;;;5102502;27;61922;-79
2022/09/12 02:37:49;;;;;;;;;16.00;14.75;;;;;;;;5103589;27;61950;-79
2022/09/12 02:40:15;;;;;;;;;15.75;13.50;;;;;;;;5103986;27;62068;-79
2022/09/12 02:42:40;;;;;;;;;17.75;11.00;;;;;;;;5103338;27;61988;-79
2022/09/12 02:45:07;;;;;;;;;18.75;12.25;;;;;;;;5103784;27;62010;-79
2022/09/12 02:47:32;;;;;;;;;13.00;12.00;;;;;;;;5103584;27;62114;-79
2022/09/12 02:49:58;;;;;;;;;16.50;13.00;;;;;;;;5102712;27;61955;-79
2022/09/12 02:52:24;;;;;;;;;13.00;13.00;;;;;;;;5101250;27;63386;-79
2022/09/12 02:54:50;;;;;;;;;13.00;11.75;;;;;;;;5102148;27;61878;-79
2022/09/12 02:57:20;;;;;;;;;16.00;12.00;;;;;;;;5102014;27;62056;-79
2022/09/12 02:59:47;;;;;;;;;17.50;13.50;;;;;;;;5102598;27;62074;-79
2022/09/12 03:02:17;;;;;;;;;20.00;13.25;;;;;;;;5101325;27;64632;-79
2022/09/12 03:04:52;;;;;;;;;16.75;13.50;;;;;;;;5103520;27;61811;-79
2022/09/12 03:07:38;;;;;;;;;16.00;13.25;;;;;;;;5102880;27;61876;-79
2022/09/12 03:10:12;;;;;;;;;11.00;11.00;;;;;;;;5102213;27;61803;-79
2022/09/12 03:12:38;;;;;;;;;13.50;13.50;;;;;;;;5102578;27;61850;-79
2022/09/12 03:15:10;;;;;;;;;22.00;14.25;;;;;;;;5101963;27;61718;-79
2022/09/12 03:18:08;;;;;;;;;11.00;10.00;;;;;;;;5103016;27;62338;-79
2022/09/12 03:20:33;;;;;;;;;13.50;11.25;;;;;;;;5080430;28;62046;-79
2022/09/12 03:23:02;;;;;;;;;13.50;11.00;;;;;;;;5062415;28;63945;-79
2022/09/12 03:25:37;;;;;;;;;12.50;10.50;;;;;;;;5063052;28;61886;-79
2022/09/12 03:28:06;;;;;;;;;11.00;10.25;;;;;;;;5063047;28;61765;-79
2022/09/12 03:30:38;;;;;;;;;11.75;9.75;;;;;;;;5080501;28;62095;-79
2022/09/12 03:33:03;;;;;;;;;15.25;13.25;;;;;;;;5079443;28;62174;-79
2022/09/12 03:35:28;;;;;;;;;13.50;12.50;;;;;;;;5062832;28;62215;-79
2022/09/12 03:37:54;;;;;;;;;12.50;10.25;;;;;;;;5062599;28;61976;-79
2022/09/12 03:40:19;;;;;;;;;15.25;12.00;;;;;;;;5080269;28;61940;-79
2022/09/12 03:42:44;;;;;;;;;17.25;11.50;;;;;;;;5079357;28;63046;-79
2022/09/12 03:45:10;;;;;;;;;15.50;12.25;;;;;;;;5080035;28;61975;-79
2022/09/12 03:47:35;;;;;;;;;13.25;11.50;;;;;;;;5062326;28;62067;-79
2022/09/12 03:50:01;;;;;;;;;12.00;10.75;;;;;;;;5063264;28;61799;-79
2022/09/12 03:52:26;;;;;;;;;16.00;10.25;;;;;;;;5078846;28;62779;-79
2022/09/12 03:54:51;;;;;;;;;16.25;12.00;;;;;;;;5079721;28;62000;-79
2022/09/12 03:57:17;;;;;;;;;14.75;10.25;;;;;;;;5101730;27;62024;-79
2022/09/12 03:59:42;;;;;;;;;17.00;12.00;;;;;;;;5102955;27;62143;-79
2022/09/12 04:02:11;;;;;;;;;13.50;11.25;;;;;;;;5101924;27;61894;-79
2022/09/12 04:04:36;;;;;;;;;12.50;11.50;;;;;;;;5101068;27;61824;-79
2022/09/12 04:07:01;;;;;;;;;12.75;9.00;;;;;;;;5102158;27;61862;-79
2022/09/12 04:09:27;;;;;;;;;9.00;9.00;;;;;;;;5101535;27;61895;-79
2022/09/12 04:11:52;;;;;;;;;12.75;9.00;;;;;;;;5100886;27;63524;-79
2022/09/12 04:14:17;;;;;;;;;11.00;10.00;;;;;;;;5101057;27;62001;-79
2022/09/12 04:16:42;;;;;;;;;11.00;10.25;;;;;;;;5102412;27;61804;-79
2022/09/12 04:19:10;;;;;;;;;12.50;10.75;;;;;;;;5103015;27;62090;-79
2022/09/12 04:21:35;;;;;;;;;11.50;10.50;;;;;;;;5101571;27;61942;-79
2022/09/12 04:24:00;;;;;;;;;10.00;10.00;;;;;;;;5100807;27;61819;-79
2022/09/12 04:26:28;;;;;;;;;12.00;11.25;;;;;;;;5104450;27;62198;-79
2022/09/12 04:28:54;;;;;;;;;13.50;11.00;;;;;;;;5105984;27;62158;-79
2022/09/12 04:31:21;;;;;;;;;14.75;13.00;;;;;;;;5105428;27;61874;-79
2022/09/12 04:33:47;;;;;;;;;14.50;11.75;;;;;;;;5105819;27;61905;-79
2022/09/12 04:36:15;;;;;;;;;12.75;10.00;;;;;;;;5105389;27;61859;-79
2022/09/12 04:38:41;;;;;;;;;16.25;12.00;;;;;;;;5104434;27;61767;-79
2022/09/12 04:41:15;;;;;;;;;14.25;11.50;;;;;;;;5103847;27;63797;-79
2022/09/12 04:43:45;;;;;;;;;11.75;10.75;;;;;;;;5105528;27;61948;-79
2022/09/12 04:46:15;;;;;;;;;12.75;11.75;;;;;;;;5104425;27;61986;-79
2022/09/12 04:48:41;;;;;;;;;12.50;10.75;;;;;;;;5105734;27;61911;-79
2022/09/12 04:51:07;;;;;;;;;15.50;13.75;;;;;;;;5103558;27;64783;-79
2022/09/12 04:53:33;;;;;;;;;15.00;11.25;;;;;;;;5105223;27;61723;-79
2022/09/12 04:56:06;;;;;;;;;11.50;10.75;;;;;;;;5104098;27;61911;-79
2022/09/12 04:58:32;;;;;;;;;15.00;11.75;;;;;;;;5105485;27;61710;-79
2022/09/12 05:01:02;;;;;;;;;14.25;8.75;;;;;;;;5103299;27;63818;-79
2022/09/12 05:03:28;;;;;;;;;16.00;10.50;;;;;;;;5104146;27;61984;-78
2022/09/12 05:05:53;;;;;;;;;15.00;11.50;;;;;;;;5103587;27;61903;-79
2022/09/12 05:08:18;;;;;;;;;14.00;10.25;;;;;;;;5103810;27;61829;-78
2022/09/12 05:10:44;;;;;;;;;15.25;13.00;;;;;;;;5104611;27;62019;-77
2022/09/12 05:13:09;;;;;;;;;12.25;12.25;;;;;;;;5105166;27;61881;-78
2022/09/12 05:15:34;;;;;;;;;14.25;13.75;;;;;;;;5103658;27;61836;-77
2022/09/12 05:17:59;;;;;;;;;12.75;11.00;;;;;;;;5103912;27;62177;-77
2022/09/12 05:20:25;;;;;;;;;16.00;14.25;;;;;;;;5102925;27;62075;-76
2022/09/12 05:22:50;;;;;;;;;13.75;12.75;;;;;;;;5104068;27;61847;-78
2022/09/12 05:25:15;;;;;;;;;13.00;11.25;;;;;;;;5103146;27;62171;-78
2022/09/12 05:27:41;;;;;;;;;11.75;10.00;;;;;;;;5103596;27;61831;-78
2022/09/12 05:30:07;;;;;;;;;13.75;11.50;;;;;;;;5104231;27;61899;-78
2022/09/12 05:32:32;;;;;;;;;11.75;7.75;;;;;;;;5103437;27;62408;-77
2022/09/12 05:34:57;;;;;;;;;13.00;11.25;;;;;;;;5104641;27;61682;-79
2022/09/12 05:37:23;;;;;;;;;14.00;11.25;;;;;;;;5103752;27;61856;-78
2022/09/12 05:39:48;;;;;;;;;11.25;10.00;;;;;;;;5102916;27;62739;-79
2022/09/12 05:42:13;;;;;;;;;10.00;9.00;;;;;;;;5101991;27;61803;-79
2022/09/12 05:44:39;;;;;;;;;14.00;10.50;;;;;;;;5104158;27;61772;-79
2022/09/12 05:47:04;;;;;;;;;14.00;11.00;;;;;;;;5102313;27;62025;-79
2022/09/12 05:49:29;;;;;;;;;14.25;13.50;;;;;;;;5102224;27;64677;-79
2022/09/12 05:51:55;;;;;;;;;13.50;11.25;;;;;;;;5101962;27;62061;-79
2022/09/12 05:54:21;;;;;;;;;12.50;11.00;;;;;;;;5101962;27;61856;-82
2022/09/12 05:56:47;;;;;;;;;14.00;11.75;;;;;;;;5102017;27;62429;-82
2022/09/12 05:59:19;;;;;;;;;16.00;12.00;;;;;;;;5103158;27;61826;-89
2022/09/12 06:01:44;;;;;;;;;13.50;11.75;;;;;;;;5099599;27;61724;-78
2022/09/12 06:04:10;;;;;;;;;9.00;9.00;;;;;;;;5102104;27;62023;-78
2022/09/12 06:06:40;;;;;;;;;14.50;12.00;;;;;;;;5102046;27;61916;-77
2022/09/12 06:09:07;;;;;;;;;11.25;10.25;;;;;;;;5102559;27;62058;-78
2022/09/12 06:11:33;;;;;;;;;16.75;15.75;;;;;;;;5102510;27;61977;-77
2022/09/12 06:13:59;;;;;;;;;16.75;13.00;;;;;;;;5104059;27;61889;-77
2022/09/12 06:16:25;;;;;;;;;14.00;9.25;;;;;;;;5104495;27;62007;-78
2022/09/12 06:18:55;;;;;;;;;10.25;10.00;;;;;;;;5103395;27;62948;-78
2022/09/12 06:21:20;;;;;;;;;14.50;10.75;;;;;;;;5103693;27;61960;-78
2022/09/12 06:23:47;;;;;;;;;16.00;10.25;;;;;;;;5104068;27;61753;-78
2022/09/12 06:26:12;;;;;;;;;13.75;6.00;;;;;;;;5102637;27;61945;-78
2022/09/12 06:28:39;;;;;;;;;13.50;11.00;;;;;;;;5103457;27;61972;-78
2022/09/12 06:31:05;;;;;;;;;15.50;14.25;;;;;;;;5102905;27;61925;-78
2022/09/12 06:33:33;;;;;;;;;14.50;13.25;;;;;;;;5104078;27;62006;-78
2022/09/12 06:36:05;;;;;;;;;11.00;11.00;;;;;;;;5102587;27;61866;-78
2022/09/12 06:38:31;;;;;;;;;17.00;11.75;;;;;;;;5103231;27;62834;-77
2022/09/12 06:40:56;;;;;;;;;16.75;12.50;;;;;;;;5102369;27;61828;-76
2022/09/12 06:43:22;;;;;;;;;13.75;9.25;;;;;;;;5102426;27;61931;-78
2022/09/12 06:45:48;;;;;;;;;11.50;11.50;;;;;;;;5102901;27;62310;-79
2022/09/12 06:48:13;;;;;;;;;12.50;9.50;;;;;;;;5101126;27;63947;-80
2022/09/12 06:50:38;;;;;;;;;11.00;7.25;;;;;;;;5101166;27;62014;-79
2022/09/12 06:53:03;;;;;;;;;16.25;9.50;;;;;;;;5101409;27;62004;-81
2022/09/12 06:55:29;;;;;;;;;11.75;10.25;;;;;;;;5100854;27;61823;-80
2022/09/12 06:57:54;;;;;;;;;12.75;11.50;;;;;;;;5101099;27;62811;-81
2022/09/12 07:00:19;;;;;;;;;12.75;12.00;;;;;;;;5100206;27;61927;-81
2022/09/12 07:02:45;;;;;;;;;14.00;11.75;;;;;;;;5100433;27;61931;-81
2022/09/12 07:05:10;;;;;;;;;12.75;10.50;;;;;;;;5102562;27;61848;-81
2022/09/12 07:07:35;;;;;;;;;16.00;11.00;;;;;;;;5101865;27;61986;-81
2022/09/12 07:10:01;;;;;;;;;13.25;11.00;;;;;;;;5101805;27;61634;-81
2022/09/12 07:12:27;;;;;;;;;10.75;10.75;;;;;;;;5101976;27;61788;-81
2022/09/12 07:14:52;;;;;;;;;14.25;11.25;;;;;;;;5103580;27;61703;-81
2022/09/12 07:17:17;;;;;;;;;14.25;11.50;;;;;;;;5100962;27;63812;-80
2022/09/12 07:19:43;;;;;;;;;17.00;12.75;;;;;;;;5103340;27;61735;-80
2022/09/12 07:22:08;;;;;;;;;12.75;10.50;;;;;;;;5101733;27;61747;-81
2022/09/12 07:24:33;;;;;;;;;11.25;11.25;;;;;;;;5101545;27;61697;-81
2022/09/12 07:26:58;;;;;;;;;10.25;10.25;;;;;;;;5102536;27;61751;-81
2022/09/12 07:29:24;;;;;;;;;7.25;5.50;;;;;;;;5101678;27;61710;-81
2022/09/12 07:31:49;;;;;;;;;13.50;10.50;;;;;;;;5101845;27;62083;-81
2022/09/12 07:34:14;;;;;;;;;13.00;9.25;;;;;;;;5102018;27;61768;-81
2022/09/12 07:36:39;;;;;;;;;15.25;14.25;;;;;;;;5101874;27;63184;-81
2022/09/12 07:39:05;;;;;;;;;16.50;10.00;;;;;;;;5102830;27;61819;-81
2022/09/12 07:41:32;;;;;;;;;11.00;9.75;;;;;;;;5101196;27;61843;-81
2022/09/12 07:43:58;;;;;;;;;16.25;14.00;;;;;;;;5103296;27;61874;-81
2022/09/12 07:46:24;;;;;;;;;13.75;11.25;;;;;;;;5102213;27;61952;-81
2022/09/12 07:48:53;;;;;;;;;13.00;11.25;;;;;;;;5102783;27;62027;-81
2022/09/12 07:51:19;;;;;;;;;13.00;12.00;;;;;;;;5101223;27;61740;-81
2022/09/12 07:53:45;;;;;;;;;13.25;11.00;;;;;;;;5101035;27;61777;-81
2022/09/12 07:56:11;;;;;;;;;26.25;23.25;;;;;;;;5102348;27;62799;-81
2022/09/12 07:58:37;;;;;;;;;16.75;15.00;;;;;;;;5101009;27;62299;-81
2022/09/12 08:01:02;;;;;;;;;19.00;15.25;;;;;;;;5104208;27;61809;-81
2022/09/12 08:03:28;;;;;;;;;14.75;12.75;;;;;;;;5104936;27;61842;-81
2022/09/12 08:05:53;;;;;;;;;16.25;12.50;;;;;;;;5104503;27;65036;-81
2022/09/12 08:08:19;;;;;;;;;12.50;10.50;;;;;;;;5105577;27;61876;-81
2022/09/12 08:10:44;;;;;;;;;18.25;13.00;;;;;;;;5105061;27;61975;-81
2022/09/12 08:13:09;;;;;;;;;12.50;11.00;;;;;;;;5105370;27;61872;-81
2022/09/12 08:15:35;;;;;;;;;12.00;12.00;;;;;;;;5104164;27;63759;-81
2022/09/12 08:18:00;;;;;;;;;14.00;12.00;;;;;;;;5106007;27;62177;-81
2022/09/12 08:20:25;;;;;;;;;26.50;20.25;;;;;;;;5106316;27;61858;-81
2022/09/12 08:22:51;;;;;;;;;15.25;13.25;;;;;;;;5105552;27;61620;-82
2022/09/12 08:25:16;;;;;;;;;11.50;11.50;;;;;;;;5103970;27;63786;-81
2022/09/12 08:27:41;;;;;;;;;14.00;11.50;;;;;;;;5105938;27;62039;-81
2022/09/12 08:30:08;;;;;;;;;17.25;14.25;;;;;;;;5104761;27;61727;-81
2022/09/12 08:32:34;;;;;;;;;15.25;13.25;;;;;;;;5104740;27;62127;-81
2022/09/12 08:34:59;;;;;;;;;18.50;13.50;;;;;;;;5103882;27;63583;-81
2022/09/12 08:37:24;;;;;;;;;16.00;14.75;;;;;;;;5103743;27;61819;-81
2022/09/12 08:39:51;;;;;;;;;13.25;11.75;;;;;;;;5104405;27;61752;-81
2022/09/12 08:42:24;;;;;;;;;13.00;13.00;;;;;;;;5106112;27;61763;-81
2022/09/12 08:45:14;;;;;;;;;16.75;12.50;;;;;;;;5105057;27;63197;-81
2022/09/12 08:47:42;;;;;;;;;12.25;12.25;;;;;;;;5104021;27;62211;-81
2022/09/12 08:50:08;;;;;;;;;17.75;11.50;;;;;;;;5105305;27;62046;-81
2022/09/12 08:52:51;;;;;;;;;17.00;8.75;;;;;;;;5105140;27;61896;-81
2022/09/12 08:55:24;;;;;;;;;16.00;11.50;;;;;;;;5103969;27;63151;-81
2022/09/12 08:57:50;;;;;;;;;17.25;14.50;;;;;;;;5104186;27;61877;-81
2022/09/12 09:00:18;;;;;;;;;17.00;10.75;;;;;;;;5103215;27;61962;-81
2022/09/12 09:03:03;;;;;;;;;10.75;10.50;;;;;;;;5103010;27;61826;-81
2022/09/12 09:05:39;;;;;;;;;15.25;12.25;;;;;;;;5102317;27;64632;-81
2022/09/12 09:08:08;;;;;;;;;14.50;12.25;;;;;;;;5102233;27;61982;-81
2022/09/12 09:10:48;;;;;;;;;11.75;10.25;;;;;;;;5104129;27;61809;-81
2022/09/12 09:16:12;;;;;;;;;10.75;7.25;;;;;;;;5103454;27;61796;-81
2022/09/12 09:18:38;;;;;;;;;17.75;11.00;;;;;;;;5104018;27;61969;-81
2022/09/12 09:21:29;;;;;;;;;12.75;10.75;;;;;;;;5102072;27;61879;-81
2022/09/12 09:23:58;;;;;;;;;10.25;7.75;;;;;;;;5096979;27;62065;-81
2022/09/12 09:26:33;;;;;;;;;19.00;11.75;;;;;;;;5103438;27;61738;-81
2022/09/12 09:29:04;;;;;;;;;11.25;10.75;;;;;;;;5102264;27;62213;-81
2022/09/12 09:31:35;;;;;;;;;12.00;9.50;;;;;;;;5102714;27;61905;-81
2022/09/12 09:34:04;;;;;;;;;8.25;8.25;;;;;;;;5103223;27;61869;-81
2022/09/12 09:36:39;;;;;;;;;16.33;9.00;;;;;;;;5103735;27;61906;-81
2022/09/12 09:39:11;;;;;;;;;12.25;8.50;;;;;;;;5102840;27;62178;-81
2022/09/12 09:41:45;;;;;;;;;12.75;8.00;;;;;;;;5102731;27;62049;-81
2022/09/12 09:44:11;;;;;;;;;9.00;7.67;;;;;;;;5103767;27;62021;-81
2022/09/12 09:46:37;;;;;;;;;6.25;6.25;;;;;;;;5101537;27;63476;-80
2022/09/12 09:49:03;;;;;;;;;14.25;11.25;;;;;;;;5101932;27;62041;-81
2022/09/12 09:51:32;;;;;;;;;7.33;6.00;;;;;;;;5102463;27;61763;-81
2022/09/12 09:54:00;;;;;;;;;8.33;7.00;;;;;;;;5051920;27;1428040;-81
2022/09/12 09:56:28;;;;;;;;;6.33;5.67;;;;;;;;5104364;27;61960;-80
2022/09/12 09:58:53;;;;;;;;;6.67;6.67;;;;;;;;5102880;27;61702;-81
2022/09/12 10:01:19;;;;;;;;;7.33;7.33;;;;;;;;5103237;27;61825;-81
2022/09/12 10:03:52;;;;;;;;;6.00;6.00;;;;;;;;5104457;27;61795;-81
2022/09/12 10:06:31;;;;;;;;;9.00;7.00;;;;;;;;5103230;27;62187;-81
2022/09/12 10:09:16;;;;;;;;;6.00;6.00;;;;;;;;5104135;27;61997;-81
2022/09/12 10:11:41;;;;;;;;;3.67;3.67;;;;;;;;5102916;27;62390;-81
2022/09/12 10:14:25;;;;;;;;;5.00;5.00;;;;;;;;5103168;27;61898;-81
2022/09/12 10:16:53;;;;;;;;;4.33;4.33;;;;;;;;5102300;27;64087;-81
2022/09/12 10:19:21;;;;;;;;;5.00;5.00;;;;;;;;5102538;27;62066;-81
2022/09/12 10:21:50;;;;;;;;;5.00;4.33;;;;;;;;5102474;27;61833;-81
2022/09/12 10:24:31;;;;;;;;;6.67;5.00;;;;;;;;5103519;27;61707;-81
2022/09/12 10:27:12;;;;;;;;;3.00;3.00;;;;;;;;5103541;27;61939;-81
2022/09/12 10:29:52;;;;;;;;;6.00;4.33;;;;;;;;5104222;27;61897;-81
2022/09/12 10:32:23;;;;;;;;;4.33;4.33;;;;;;;;5103728;27;62093;-81
2022/09/12 10:34:52;;;;;;;;;4.67;4.33;;;;;;;;5103044;27;62017;-81
2022/09/12 10:37:22;;;;;;;;;4.33;3.33;;;;;;;;5101737;27;64767;-81
2022/09/12 10:39:52;;;;;;;;;5.33;4.00;;;;;;;;5104116;27;61832;-81
2022/09/12 10:42:37;;;;;;;;;5.67;3.00;;;;;;;;5102592;27;62177;-81
2022/09/12 10:45:03;;;;;;;;;3.00;2.00;;;;;;;;5102809;27;62547;-81
2022/09/12 10:47:29;;;;;;;;;2.67;1.00;;;;;;;;5100933;27;64611;-81
2022/09/12 10:50:14;;;;;;;;;1.00;1.00;;;;;;;;5104309;27;61978;-79
2022/09/12 10:52:40;;;;;;;;;3.67;2.00;;;;;;;;5103050;27;62082;-80
2022/09/12 10:55:11;;;;;;;;;1.33;1.33;;;;;;;;5102499;27;61732;-76
2022/09/12 10:57:36;;;;;;;;;1.67;1.67;;;;;;;;5101684;27;63558;-77
2022/09/12 11:00:14;;;;;;;;;3.00;2.00;;;;;;;;5103549;27;61886;-79
2022/09/12 11:02:49;;;;;;;;;1.00;1.00;;;;;;;;5102574;27;62030;-80
2022/09/12 11:05:14;;;;;;;;;2.00;1.00;;;;;;;;5102664;27;62083;-80
2022/09/12 11:07:43;;;;;;;;;4.00;2.00;;;;;;;;5100750;27;63837;-79
2022/09/12 11:10:27;;;;;;;;;2.00;2.00;;;;;;;;5103509;27;61783;-80
2022/09/12 11:12:59;;;;;;;;;1.00;1.00;;;;;;;;5103777;27;61875;-79
2022/09/12 11:15:39;;;;;;;;;2.33;2.00;;;;;;;;5102070;27;62356;-75
2022/09/12 11:18:16;;;;;;;;;2.67;1.67;;;;;;;;5102316;27;61838;-76
2022/09/12 11:20:56;;;;;;;;;1.67;1.67;;;;;;;;5103356;27;61709;-81
2022/09/12 11:23:46;;;;;;;;;2.67;2.00;;;;;;;;5100873;27;62098;-78
2022/09/12 11:26:27;;;;;;;;;2.00;2.00;;;;;;;;5101741;27;61750;-82
2022/09/12 11:29:02;;;;;;;;;4.00;3.00;;;;;;;;5100530;27;63889;-82
2022/09/12 11:31:37;;;;;;;;;0.67;0.67;;;;;;;;5102594;27;62915;-80
2022/09/12 11:34:08;;;;;;;;;1.00;1.00;;;;;;;;5102966;27;61735;-81
2022/09/12 11:36:47;;;;;;;;;1.00;1.00;;;;;;;;5101410;27;61884;-81
2022/09/12 11:39:16;;;;;;;;;0.67;0.67;;;;;;;;5102198;27;62088;-81
2022/09/12 11:41:44;;;;;;;;;2.00;2.00;;;;;;;;5101340;27;61785;-80
2022/09/12 11:44:42;;;;;;;;;0.67;0.67;;;;;;;;5101551;27;61949;-82
2022/09/12 11:47:10;;;;;;;;;0.67;0.67;;;;;;;;5080235;28;61961;-81
2022/09/12 11:49:39;;;;;;;;;0.00;0.00;;;;;;;;5062116;28;63997;-81
2022/09/12 11:52:13;;;;;;;;;2.00;1.00;;;;;;;;5062476;28;61781;-81
2022/09/12 11:54:38;;;;;;;;;1.33;1.33;;;;;;;;5079673;28;61829;-81
2022/09/12 11:57:22;;;;;;;;;1.00;1.00;;;;;;;;5063169;28;62379;-81
2022/09/12 11:59:59;;;;;;;;;2.00;1.00;;;;;;;;5079082;28;61993;-81
2022/09/12 12:02:26;;;;;;;;;0.67;0.33;;;;;;;;5063029;28;61937;-82
2022/09/12 12:05:00;;;;;;;;;1.00;1.00;;;;;;;;5063052;28;61906;-82
2022/09/12 12:07:30;;;;;;;;;1.00;1.00;;;;;;;;5061933;28;61941;-81
2022/09/12 12:09:55;;;;;;;;;2.33;0.67;;;;;;;;5079225;28;62061;-81
2022/09/12 12:12:24;;;;;;;;;2.67;1.67;;;;;;;;5062669;28;62260;-82
2022/09/12 12:14:50;;;;;;;;;1.00;1.00;;;;;;;;5079560;28;62373;-84
2022/09/12 12:17:17;;;;;;;;;2.33;1.00;;;;;;;;5063157;28;62148;-83
2022/09/12 12:19:44;;;;;;;;;1.00;1.00;;;;;;;;5079051;28;61813;-81
2022/09/12 12:22:22;;;;;;;;;0.67;0.67;;;;;;;;5064828;28;61886;-81
2022/09/12 12:24:57;;;;;;;;;0.67;0.67;;;;;;;;5080465;28;62159;-80
2022/09/12 12:27:24;;;;;;;;;2.00;0.33;;;;;;;;5080190;28;61800;-81
2022/09/12 12:29:50;;;;;;;;;1.00;1.00;;;;;;;;5081494;28;61924;-82
2022/09/12 12:32:15;;;;;;;;;1.00;1.00;;;;;;;;5082059;28;61865;-81
2022/09/12 12:34:44;;;;;;;;;1.00;1.00;;;;;;;;5080737;28;61782;-81
2022/09/12 12:37:21;;;;;;;;;0.00;0.00;;;;;;;;5082113;28;61896;-82
2022/09/12 12:39:47;;;;;;;;;3.00;1.33;;;;;;;;5079773;28;63663;-81
2022/09/12 12:42:31;;;;;;;;;0.00;0.00;;;;;;;;5080321;28;62019;-81
2022/09/12 12:44:56;;;;;;;;;0.33;0.33;;;;;;;;5080753;28;61845;-81
2022/09/12 12:47:24;;;;;;;;;1.00;1.00;;;;;;;;5084874;28;61789;-81
2022/09/12 12:49:58;;;;;;;;;1.00;1.00;;;;;;;;5083372;28;64718;-82
2022/09/12 12:52:26;;;;;;;;;3.33;1.00;;;;;;;;5084885;27;61882;-81
2022/09/12 12:54:54;;;;;;;;;0.00;0.00;;;;;;;;5085111;28;61997;-81
2022/09/12 12:57:32;;;;;;;;;0.33;0.33;;;;;;;;5085345;28;61793;-81
2022/09/12 13:00:05;;;;;;;;;0.00;0.00;;;;;;;;5082907;28;63805;-81
2022/09/12 13:02:49;;;;;;;;;0.00;0.00;;;;;;;;5083819;28;61944;-83
2022/09/12 13:05:23;;;;;;;;;0.33;0.00;;;;;;;;5083962;28;61951;-82
2022/09/12 13:07:53;;;;;;;;;0.67;0.67;;;;;;;;5093863;27;61941;-82
2022/09/12 13:10:23;;;;;;;;;1.00;1.00;;;;;;;;5103729;27;64648;-81
2022/09/12 13:12:50;;;;;;;;;0.33;0.33;;;;;;;;5103620;27;61796;-81
2022/09/12 13:15:34;;;;;;;;;2.00;1.00;;;;;;;;5104209;27;62199;-82
2022/09/12 13:18:32;;;;;;;;;0.00;0.00;;;;;;;;5103919;27;61823;-81
2022/09/12 13:21:13;;;;;;;;;0.00;0.00;;;;;;;;5064738;28;63871;-81
2022/09/12 13:23:40;;;;;;;;;1.33;0.00;;;;;;;;5064840;28;62663;-82
2022/09/12 13:26:13;;;;;;;;;2.00;0.00;;;;;;;;5082255;28;61893;-83
2022/09/12 13:28:38;;;;;;;;;0.33;0.00;;;;;;;;5065522;28;61831;-83
2022/09/12 13:31:09;;;;;;;;;0.67;0.67;;;;;;;;5064441;28;63749;-82
2022/09/12 13:33:41;;;;;;;;;1.00;1.00;;;;;;;;5065204;28;61871;-81
2022/09/12 13:36:16;;;;;;;;;0.00;0.00;;;;;;;;5082345;27;61843;-81
2022/09/12 13:38:56;;;;;;;;;1.00;1.00;;;;;;;;5064574;28;61935;-82
2022/09/12 13:41:31;;;;;;;;;0.00;0.00;;;;;;;;5064439;28;63755;-81
2022/09/12 13:43:56;;;;;;;;;1.67;1.00;;;;;;;;5065119;28;61688;-83
2022/09/12 13:46:29;;;;;;;;;0.67;0.67;;;;;;;;5065280;28;62181;-82
2022/09/12 13:48:56;;;;;;;;;2.33;1.33;;;;;;;;5061285;28;61890;-82
2022/09/12 13:51:23;;;;;;;;;1.00;1.00;;;;;;;;5044286;28;64121;-82
2022/09/12 13:53:50;;;;;;;;;0.00;0.00;;;;;;;;5044258;28;61840;-82
2022/09/12 13:56:16;;;;;;;;;0.00;0.00;;;;;;;;5056814;28;61918;-82
2022/09/12 13:58:50;;;;;;;;;1.67;1.00;;;;;;;;5081913;28;61997;-82
2022/09/12 14:01:15;;;;;;;;;2.00;1.00;;;;;;;;5082296;28;62865;-82
2022/09/12 14:06:26;;;;;;;;;1.00;0.00;;;;;;;;5084653;28;61920;-84
2022/09/12 14:08:53;;;;;;;;;1.33;0.67;;;;;;;;5134590;27;61849;-82
2022/09/12 14:11:24;;;;;;;;;0.67;0.00;;;;;;;;5102667;27;64006;-83
2022/09/12 14:13:49;;;;;;;;;0.67;0.33;;;;;;;;5103218;27;61840;-82
2022/09/12 14:16:15;;;;;;;;;0.67;0.67;;;;;;;;5104649;27;61882;-82
2022/09/12 14:18:43;;;;;;;;;1.33;0.67;;;;;;;;5103248;27;62032;-81
2022/09/12 14:21:20;;;;;;;;;0.00;0.00;;;;;;;;5102523;27;63528;-82
2022/09/12 14:23:47;;;;;;;;;0.00;0.00;;;;;;;;5102509;27;61843;-82
2022/09/12 14:26:14;;;;;;;;;1.33;0.33;;;;;;;;5102954;27;62659;-82
2022/09/12 14:28:40;;;;;;;;;0.00;0.00;;;;;;;;5103484;27;61839;-83
2022/09/12 14:31:19;;;;;;;;;1.67;0.67;;;;;;;;5103733;27;63244;-82
2022/09/12 14:33:47;;;;;;;;;0.00;0.00;;;;;;;;5103063;27;61906;-82
2022/09/12 14:36:21;;;;;;;;;0.67;0.67;;;;;;;;5102699;27;61839;-82
2022/09/12 14:38:49;;;;;;;;;0.00;0.00;;;;;;;;5103494;27;62048;-82
2022/09/12 14:41:20;;;;;;;;;1.67;0.67;;;;;;;;5102127;27;64002;-82
2022/09/12 14:43:50;;;;;;;;;2.00;0.67;;;;;;;;5102350;27;61742;-83
2022/09/12 14:46:21;;;;;;;;;0.67;0.67;;;;;;;;5084761;27;62115;-82